Time;durP1;ratioP1;P1;durP2;ratioP2;P2;SDS_P1;SDS_P2;PMS_P1;PMS_P2;Temp;Humidity;BMP_temperature;BMP_pressure;BME280_temperature;BME280_humidity;BME280_pressure;Samples;Min_cycle;Max_cycle;Signal;HPM_P1;HPM_P2
2022/10/01 03:02:27;;;;;;;19.02;12.98;;;;;;;6.96;66.11;100355.44;5272400;23;20054;-64
2022/10/01 03:04:56;;;;;;;14.82;12.10;;;;;;;6.87;66.29;100357.13;4989875;28;20116;-62
2022/10/01 03:07:26;;;;;;;17.75;12.77;;;;;;;6.91;65.86;100363.00;4991659;28;20129;-62
2022/10/01 03:09:54;;;;;;;19.50;12.10;;;;;;;6.88;65.84;100356.16;4989766;28;20070;-62
2022/10/01 03:12:22;;;;;;;19.90;12.48;;;;;;;7.17;65.26;100349.88;4991626;28;20064;-63
2022/10/01 03:14:50;;;;;;;15.88;11.98;;;;;;;6.92;65.48;100343.38;4992935;28;20494;-62
2022/10/01 03:17:17;;;;;;;20.85;13.15;;;;;;;6.97;65.83;100350.94;4992704;28;20054;-62
2022/10/01 03:19:43;;;;;;;21.35;13.18;;;;;;;7.22;64.88;100347.59;4992937;28;20228;-63
2022/10/01 03:22:13;;;;;;;18.17;12.93;;;;;;;7.10;65.19;100336.28;4992166;28;20049;-62
2022/10/01 03:24:41;;;;;;;16.48;11.82;;;;;;;7.26;64.38;100329.50;4991448;28;20053;-63
2022/10/01 03:27:09;;;;;;;18.25;12.00;;;;;;;6.98;64.99;100328.59;4981930;28;20058;-63
2022/10/01 03:29:35;;;;;;;17.75;11.73;;;;;;;6.96;65.03;100328.78;4990899;28;20050;-64
2022/10/01 03:32:02;;;;;;;15.18;11.43;;;;;;;7.02;65.53;100325.53;4986999;28;20070;-62
2022/10/01 03:34:29;;;;;;;14.95;11.27;;;;;;;7.00;65.26;100329.31;4994148;28;20562;-62
2022/10/01 03:36:55;;;;;;;16.20;12.15;;;;;;;6.95;65.10;100319.09;4993021;28;20043;-62
2022/10/01 03:39:22;;;;;;;19.92;11.50;;;;;;;6.94;65.44;100320.94;4992268;28;20394;-63
2022/10/01 03:41:49;;;;;;;18.30;11.57;;;;;;;7.00;65.31;100315.97;4982400;28;20497;-64
2022/10/01 03:44:16;;;;;;;17.13;11.20;;;;;;;7.00;65.06;100302.66;4989134;28;20053;-62
2022/10/01 03:46:43;;;;;;;17.70;10.98;;;;;;;7.25;64.35;100301.94;4993103;28;20109;-63
2022/10/01 03:49:10;;;;;;;15.70;11.23;;;;;;;7.15;64.50;100307.34;4956879;28;20500;-62
2022/10/01 03:51:36;;;;;;;18.55;10.68;;;;;;;6.93;65.09;100308.56;4991685;28;20046;-64
2022/10/01 03:54:05;;;;;;;15.68;10.25;;;;;;;6.94;64.94;100307.59;4989978;28;20078;-63
2022/10/01 03:56:33;;;;;;;14.40;10.82;;;;;;;6.80;65.29;100302.72;4991215;28;20050;-64
2022/10/01 03:59:00;;;;;;;17.52;10.00;;;;;;;7.22;64.07;100301.41;4991160;28;20050;-64
2022/10/01 04:01:27;;;;;;;22.90;11.32;;;;;;;6.97;64.80;100302.94;4989762;28;20133;-63
2022/10/01 04:03:54;;;;;;;15.65;10.93;;;;;;;6.69;65.74;100293.06;4999923;28;20396;-63
2022/10/01 04:06:21;;;;;;;17.10;10.73;;;;;;;6.65;65.79;100304.19;5008552;28;20054;-63
2022/10/01 04:08:50;;;;;;;17.20;10.93;;;;;;;6.66;65.82;100306.69;5011634;28;20073;-63
2022/10/01 04:11:16;;;;;;;14.25;10.98;;;;;;;6.89;65.26;100301.84;5006925;28;20054;-63
2022/10/01 04:13:44;;;;;;;15.73;11.55;;;;;;;6.86;65.29;100299.47;5011919;28;20053;-63
2022/10/01 04:16:11;;;;;;;17.35;10.30;;;;;;;6.98;64.90;100294.81;5010259;28;20049;-63
2022/10/01 04:18:38;;;;;;;14.98;10.77;;;;;;;6.72;65.11;100286.63;4984726;28;20490;-63
2022/10/01 04:21:05;;;;;;;21.30;10.95;;;;;;;6.84;64.86;100284.59;5010800;28;20413;-64
2022/10/01 04:23:31;;;;;;;18.67;10.55;;;;;;;6.69;65.42;100281.56;4994398;28;20037;-71
2022/10/01 04:26:02;;;;;;;18.00;11.75;;;;;;;6.70;65.04;100275.25;5012359;28;20050;-73
2022/10/01 04:28:29;;;;;;;13.55;9.10;;;;;;;6.84;64.98;100284.59;5011091;28;20113;-72
2022/10/01 04:31:23;;;;;;;18.23;10.73;;;;;;;6.98;64.33;100284.13;4993018;28;20053;-71
2022/10/01 04:33:43;;;;;;;14.00;9.65;;;;;;;6.95;64.66;100285.25;5013449;28;20048;-74
2022/10/01 04:36:10;;;;;;;14.52;10.60;;;;;;;6.80;64.93;100283.22;5011536;28;20536;-75
2022/10/01 04:38:37;;;;;;;18.27;10.75;;;;;;;6.91;64.88;100280.34;5029629;28;20053;-74
2022/10/01 04:41:03;;;;;;;16.73;10.95;;;;;;;6.83;65.10;100267.75;5031505;28;20375;-73
2022/10/01 04:43:30;;;;;;;16.73;11.13;;;;;;;6.76;65.08;100285.34;5034678;28;20034;-73
2022/10/01 04:45:56;;;;;;;16.58;11.93;;;;;;;6.84;64.76;100276.59;5032848;28;20049;-73
2022/10/01 04:48:23;;;;;;;17.33;10.57;;;;;;;6.86;64.83;100271.97;5017698;28;20050;-74
2022/10/01 04:50:49;;;;;;;15.23;9.73;;;;;;;6.59;65.58;100268.28;5016586;28;20164;-73
2022/10/01 04:53:15;;;;;;;16.50;10.43;;;;;;;6.95;64.78;100277.25;4999884;28;20489;-71
2022/10/01 04:55:42;;;;;;;18.20;10.07;;;;;;;6.91;64.53;100267.88;5013373;28;20064;-71
2022/10/01 04:58:09;;;;;;;16.02;9.98;;;;;;;7.07;64.34;100275.22;5012859;28;20072;-71
2022/10/01 05:00:35;;;;;;;20.65;10.27;;;;;;;6.86;64.40;100263.97;5010364;28;20053;-70
2022/10/01 05:03:02;;;;;;;13.35;9.70;;;;;;;6.95;64.42;100265.75;5014729;28;20440;-71
2022/10/01 05:05:31;;;;;;;17.05;9.32;;;;;;;6.49;65.73;100264.78;5013525;28;20046;-71
2022/10/01 05:07:58;;;;;;;20.40;9.60;;;;;;;6.82;64.97;100260.75;5014310;28;20112;-71
2022/10/01 05:10:25;;;;;;;16.45;9.93;;;;;;;6.93;64.70;100265.06;5013923;28;20049;-71
2022/10/01 05:12:51;;;;;;;12.98;8.68;;;;;;;7.02;64.12;100261.50;5013722;28;20061;-71
2022/10/01 05:15:18;;;;;;;11.63;8.85;;;;;;;6.84;64.66;100264.13;4997594;28;20056;-73
2022/10/01 05:17:45;;;;;;;15.95;9.68;;;;;;;6.77;65.31;100257.69;5035170;28;20049;-75
2022/10/01 05:20:18;;;;;;;13.98;9.48;;;;;;;6.84;64.93;100256.13;5035668;28;20034;-74
2022/10/01 05:22:46;;;;;;;15.50;9.27;;;;;;;7.09;64.45;100259.94;5035083;28;20052;-74
2022/10/01 05:25:13;;;;;;;14.30;9.25;;;;;;;7.06;64.09;100254.88;5034358;28;20054;-74
2022/10/01 05:27:39;;;;;;;18.38;9.48;;;;;;;6.79;64.68;100250.38;5033903;28;20052;-73
2022/10/01 05:30:09;;;;;;;13.95;8.65;;;;;;;7.01;64.26;100253.63;5034007;28;20088;-70
2022/10/01 05:32:36;;;;;;;13.15;9.15;;;;;;;6.88;64.49;100254.00;5034856;28;20097;-75
2022/10/01 05:35:05;;;;;;;13.63;8.55;;;;;;;7.02;64.29;100245.50;5034957;28;20049;-74
2022/10/01 05:37:32;;;;;;;13.82;9.65;;;;;;;7.10;64.15;100244.75;5034836;28;20048;-74
2022/10/01 05:39:58;;;;;;;15.77;9.18;;;;;;;7.10;63.97;100244.75;5033189;28;20052;-74
2022/10/01 05:42:25;;;;;;;13.98;9.05;;;;;;;6.94;64.68;100240.06;5028708;28;20056;-74
2022/10/01 05:44:51;;;;;;;12.70;8.18;;;;;;;6.99;64.50;100237.81;5034522;28;20097;-73
2022/10/01 05:47:19;;;;;;;13.73;8.00;;;;;;;7.09;64.41;100237.75;5033299;28;20064;-74
2022/10/01 05:49:45;;;;;;;10.88;7.78;;;;;;;6.80;64.75;100228.06;5032610;28;20109;-74
2022/10/01 05:52:14;;;;;;;13.93;8.35;;;;;;;6.94;65.20;100232.06;5034878;28;20072;-74
2022/10/01 05:54:41;;;;;;;12.55;8.43;;;;;;;7.03;64.85;100233.84;5035427;28;20066;-69
2022/10/01 05:57:08;;;;;;;14.55;8.60;;;;;;;7.19;64.10;100218.03;5034251;28;20037;-70
2022/10/01 05:59:35;;;;;;;13.32;8.40;;;;;;;7.23;64.07;100207.88;5035508;28;20105;-75
2022/10/01 06:02:02;;;;;;;13.98;7.88;;;;;;;7.33;63.97;100207.81;5034983;28;20086;-74
2022/10/01 06:04:29;;;;;;;12.98;7.93;;;;;;;7.39;63.51;100202.69;5024501;28;20050;-74
2022/10/01 06:06:56;;;;;;;15.23;8.25;;;;;;;7.19;63.92;100196.69;5032690;28;20133;-73
2022/10/01 06:09:22;;;;;;;12.77;7.80;;;;;;;7.21;64.03;100193.84;5025369;28;20054;-72
2022/10/01 06:11:49;;;;;;;10.27;7.55;;;;;;;7.25;64.28;100189.88;5018244;28;20056;-73
2022/10/01 06:14:16;;;;;;;13.65;7.78;;;;;;;7.38;63.76;100184.19;5031848;28;20037;-75
2022/10/01 06:16:42;;;;;;;12.65;8.00;;;;;;;7.39;63.66;100192.03;5030876;28;20497;-74
2022/10/01 06:19:09;;;;;;;12.45;7.60;;;;;;;7.24;63.94;100188.22;5031415;28;20049;-72
2022/10/01 06:21:35;;;;;;;12.38;7.40;;;;;;;7.52;63.30;100178.28;5032088;28;20228;-74
2022/10/01 06:24:03;;;;;;;12.63;7.63;;;;;;;7.50;63.40;100184.78;5031599;28;20042;-75
2022/10/01 06:26:30;;;;;;;10.27;7.93;;;;;;;7.61;62.93;100188.06;5031795;28;20041;-74
2022/10/01 06:28:56;;;;;;;15.90;7.65;;;;;;;7.58;63.43;100185.69;5031323;28;21768;-73
2022/10/01 06:31:23;;;;;;;11.27;7.03;;;;;;;7.44;63.81;100175.56;5031823;28;20050;-73
2022/10/01 06:33:50;;;;;;;12.20;7.40;;;;;;;7.73;63.00;100171.78;5030801;28;20490;-74
2022/10/01 06:36:17;;;;;;;12.45;7.85;;;;;;;7.90;62.89;100168.28;5030969;28;20029;-74
2022/10/01 06:38:47;;;;;;;17.15;7.63;;;;;;;7.76;62.97;100166.16;5032280;28;20085;-72
2022/10/01 06:41:13;;;;;;;11.25;7.15;;;;;;;7.78;63.09;100166.84;5031315;28;20049;-72
2022/10/01 06:43:39;;;;;;;14.25;7.90;;;;;;;7.92;62.70;100174.31;5031172;28;20056;-73
2022/10/01 06:46:06;;;;;;;16.52;8.18;;;;;;;7.84;63.06;100174.25;5015747;28;20056;-64
2022/10/01 06:48:35;;;;;;;13.30;7.93;;;;;;;7.79;62.70;100169.34;5011100;28;20049;-65
2022/10/01 06:51:02;;;;;;;15.65;8.20;;;;;;;7.73;63.37;100150.44;5013400;28;20445;-65
2022/10/01 06:53:28;;;;;;;13.68;8.40;;;;;;;7.85;62.87;100150.06;5012642;28;20057;-63
2022/10/01 06:55:55;;;;;;;13.90;8.13;;;;;;;7.99;62.85;100145.97;5012113;28;20519;-63
2022/10/01 06:58:26;;;;;;;13.18;7.60;;;;;;;7.93;62.93;100149.28;5010891;28;20446;-64
2022/10/01 07:00:58;;;;;;;11.80;7.95;;;;;;;8.03;62.62;100133.97;5011110;28;20046;-64
2022/10/01 07:03:26;;;;;;;11.30;7.85;;;;;;;7.98;62.88;100138.94;5011338;28;20054;-63
2022/10/01 07:05:52;;;;;;;12.88;7.63;;;;;;;8.07;62.37;100131.84;5011227;28;20072;-63
2022/10/01 07:08:19;;;;;;;11.35;8.05;;;;;;;7.97;63.27;100137.28;4995106;28;20534;-64
2022/10/01 07:10:46;;;;;;;15.32;8.27;;;;;;;8.14;62.73;100125.69;5010758;28;20057;-64
2022/10/01 07:13:19;;;;;;;12.35;7.43;;;;;;;8.22;62.18;100132.06;5012312;28;20054;-64
2022/10/01 07:15:45;;;;;;;13.00;7.63;;;;;;;8.13;62.45;100121.34;5010972;28;20136;-68
2022/10/01 07:18:13;;;;;;;12.05;8.63;;;;;;;8.36;61.95;100126.97;5011565;28;20076;-68
2022/10/01 07:20:40;;;;;;;13.18;7.72;;;;;;;8.40;61.98;100122.16;5006577;28;20144;-69
2022/10/01 07:23:11;;;;;;;12.02;8.10;;;;;;;8.34;62.23;100115.59;5011798;28;20056;-68
2022/10/01 07:25:38;;;;;;;12.87;7.87;;;;;;;8.15;62.94;100113.16;5011595;28;20042;-68
2022/10/01 07:28:14;;;;;;;14.60;8.90;;;;;;;8.41;62.61;100107.78;4992642;28;20625;-67
2022/10/01 07:30:44;;;;;;;15.25;8.57;;;;;;;8.60;62.00;100098.63;5011439;28;20125;-68
2022/10/01 07:33:10;;;;;;;9.90;8.05;;;;;;;8.37;62.63;100095.75;5011775;28;20196;-68
2022/10/01 07:35:37;;;;;;;15.38;8.60;;;;;;;8.47;62.52;100092.91;5012892;28;20045;-63
2022/10/01 07:38:06;;;;;;;11.57;7.70;;;;;;;8.57;62.32;100097.16;5011761;28;20516;-63
2022/10/01 07:40:33;;;;;;;12.15;7.15;;;;;;;8.51;62.22;100091.63;5011482;28;20122;-64
2022/10/01 07:43:00;;;;;;;16.15;7.80;;;;;;;8.47;62.64;100088.44;5020460;28;20046;-74
2022/10/01 07:45:26;;;;;;;12.50;7.72;;;;;;;8.68;61.88;100087.13;5030319;28;20034;-74
2022/10/01 07:47:55;;;;;;;13.68;7.15;;;;;;;8.82;61.57;100078.50;5018459;28;20124;-68
2022/10/01 07:50:22;;;;;;;13.68;8.32;;;;;;;8.85;61.10;100080.84;5011539;28;20054;-68
2022/10/01 07:52:51;;;;;;;14.93;7.47;;;;;;;8.87;61.39;100081.50;5011121;28;20148;-68
2022/10/01 07:55:19;;;;;;;12.55;8.30;;;;;;;8.98;61.02;100077.66;5012021;28;20050;-68
2022/10/01 07:57:56;;;;;;;14.82;7.93;;;;;;;9.21;60.56;100067.97;5015980;28;20056;-74
2022/10/01 08:00:25;;;;;;;15.80;7.88;;;;;;;9.09;60.79;100059.47;5029166;28;20037;-74
2022/10/01 08:02:54;;;;;;;11.13;7.28;;;;;;;8.97;61.40;100060.78;5029658;28;20050;-74
2022/10/01 08:05:29;;;;;;;16.30;7.28;;;;;;;9.24;60.36;100058.81;5020231;28;20053;-73
2022/10/01 08:08:00;;;;;;;13.57;8.02;;;;;;;9.09;61.01;100053.25;5028841;28;20065;-74
2022/10/01 08:10:27;;;;;;;14.65;8.07;;;;;;;8.99;61.40;100045.41;5026209;28;20048;-74
2022/10/01 08:13:04;;;;;;;10.10;7.20;;;;;;;9.22;60.89;100042.88;5009327;28;20046;-74
2022/10/01 08:15:31;;;;;;;11.55;7.55;;;;;;;9.26;60.93;100049.59;4997126;28;20045;-63
2022/10/01 08:18:03;;;;;;;12.63;7.63;;;;;;;9.20;60.97;100041.41;5012336;28;20045;-63
2022/10/01 08:20:30;;;;;;;12.32;7.53;;;;;;;9.36;60.47;100035.22;5010810;28;20054;-63
2022/10/01 08:23:04;;;;;;;11.30;7.35;;;;;;;9.13;61.20;100037.69;5010797;28;20394;-63
2022/10/01 08:25:32;;;;;;;13.00;6.90;;;;;;;9.33;60.46;100028.34;5011749;28;20050;-63
2022/10/01 08:27:59;;;;;;;11.68;6.72;;;;;;;9.56;60.10;100026.63;5011306;28;20060;-63
2022/10/01 08:30:26;;;;;;;8.93;6.82;;;;;;;9.53;60.33;100034.19;5010112;28;20049;-63
2022/10/01 08:32:56;;;;;;;12.05;7.55;;;;;;;9.87;59.36;100025.91;5011313;28;20052;-63
2022/10/01 08:35:25;;;;;;;10.07;7.05;;;;;;;9.89;58.83;100031.06;4993116;28;20056;-63
2022/10/01 08:37:51;;;;;;;12.05;6.93;;;;;;;9.81;59.17;100015.84;5007092;28;20141;-63
2022/10/01 08:40:20;;;;;;;9.50;6.80;;;;;;;9.78;59.21;100018.88;5000457;28;20050;-64
2022/10/01 08:43:13;;;;;;;16.38;6.95;;;;;;;9.80;58.78;100011.53;5025953;28;20048;-73
2022/10/01 08:45:44;;;;;;;13.32;6.88;;;;;;;9.86;58.83;100024.22;5006511;28;20049;-74
2022/10/01 08:48:18;;;;;;;9.18;5.93;;;;;;;10.31;57.75;100006.63;5028391;28;20060;-74
2022/10/01 08:51:02;;;;;;;10.52;6.47;;;;;;;10.16;57.80;100005.66;5029975;28;20049;-73
2022/10/01 08:53:51;;;;;;;11.88;6.22;;;;;;;10.14;57.95;100007.72;5029049;28;20057;-72
2022/10/01 08:56:22;;;;;;;12.02;6.15;;;;;;;10.38;57.42;99998.69;5028141;28;20054;-73
2022/10/01 08:58:58;;;;;;;8.18;5.40;;;;;;;10.54;56.55;100001.28;5029003;28;20045;-75
2022/10/01 09:01:28;;;;;;;10.63;5.82;;;;;;;10.44;57.20;99990.78;5029637;28;20062;-74
2022/10/01 09:03:57;;;;;;;8.05;5.50;;;;;;;10.39;57.07;99981.59;5029193;28;20076;-73
2022/10/01 09:06:26;;;;;;;12.60;5.68;;;;;;;10.76;55.84;99988.09;5028389;28;20054;-75
2022/10/01 09:09:11;;;;;;;9.40;5.60;;;;;;;10.54;56.29;99979.00;5029321;28;20104;-72
2022/10/01 09:12:03;;;;;;;8.88;5.63;;;;;;;10.57;56.37;99973.28;5029548;28;20049;-74
2022/10/01 09:14:54;;;;;;;7.80;4.72;;;;;;;10.82;55.60;99971.25;5028097;28;20049;-75
2022/10/01 09:17:38;;;;;;;7.65;5.28;;;;;;;10.70;56.05;99957.44;5011797;28;20100;-70
2022/10/01 09:20:19;;;;;;;12.98;4.90;;;;;;;11.11;54.69;99963.28;5010173;28;20097;-72
2022/10/01 09:23:14;;;;;;;8.18;4.75;;;;;;;11.35;53.94;99938.03;5009010;28;20042;-70
2022/10/01 09:25:42;;;;;;;10.15;4.60;;;;;;;11.52;53.74;99940.53;5008402;28;20440;-73
2022/10/01 09:28:15;;;;;;;6.85;4.32;;;;;;;11.23;54.35;99937.66;5014258;28;20061;-72
2022/10/01 09:30:47;;;;;;;7.35;4.60;;;;;;;11.15;54.78;99945.78;5014164;28;20497;-71
2022/10/01 09:33:21;;;;;;;12.98;4.30;;;;;;;11.37;54.32;99946.72;5013793;28;20387;-72
2022/10/01 09:35:53;;;;;;;8.30;3.88;;;;;;;11.19;54.82;99935.53;5013309;28;20042;-72
2022/10/01 09:38:26;;;;;;;14.77;3.88;;;;;;;10.78;55.85;99938.59;5014006;28;20049;-72
2022/10/01 09:40:55;;;;;;;6.25;3.60;;;;;;;10.85;56.14;99934.16;5013122;28;20409;-70
2022/10/01 09:43:25;;;;;;;8.45;4.18;;;;;;;11.24;55.54;99919.72;5013281;28;20050;-71
2022/10/01 09:45:52;;;;;;;6.70;3.78;;;;;;;11.26;55.59;99922.19;5010992;28;20484;-70
2022/10/01 09:48:24;;;;;;;7.68;3.28;;;;;;;10.85;56.55;99923.44;5013043;28;20475;-64
2022/10/01 09:50:57;;;;;;;8.23;3.85;;;;;;;10.86;56.88;99919.75;5013632;28;20046;-70
2022/10/01 09:53:31;;;;;;;6.85;3.15;;;;;;;10.60;57.69;99893.31;5004744;28;20049;-72
2022/10/01 09:56:04;;;;;;;4.72;3.35;;;;;;;10.72;58.06;99913.31;5013021;28;20053;-73
2022/10/01 09:58:35;;;;;;;5.65;3.60;;;;;;;10.50;59.22;99892.72;5013160;28;20052;-73
2022/10/01 10:01:03;;;;;;;5.53;3.13;;;;;;;10.56;59.56;99894.69;5011947;28;20050;-75
2022/10/01 10:03:30;;;;;;;4.65;3.30;;;;;;;10.47;60.27;99893.03;5012605;28;20523;-72
2022/10/01 10:05:58;;;;;;;3.83;2.92;;;;;;;10.44;60.45;99891.56;5012878;28;20046;-72
2022/10/01 10:08:45;;;;;;;4.97;3.08;;;;;;;10.17;61.53;99892.09;5012866;28;20049;-72
2022/10/01 10:11:22;;;;;;;5.65;3.80;;;;;;;10.10;62.00;99910.75;5012529;28;20050;-70
2022/10/01 10:13:52;;;;;;;6.32;3.45;;;;;;;9.84;62.90;99894.97;5011311;28;20096;-71
2022/10/01 10:16:26;;;;;;;4.82;3.72;;;;;;;10.04;63.59;99887.31;5012137;28;20050;-71
2022/10/01 10:18:57;;;;;;;6.85;4.50;;;;;;;9.90;64.86;99891.59;5012127;28;20410;-71
2022/10/01 10:21:28;;;;;;;5.68;4.38;;;;;;;9.75;65.35;99894.19;5011910;28;20057;-72
2022/10/01 10:24:00;;;;;;;10.03;5.37;;;;;;;9.79;66.61;99890.16;5012276;28;20041;-70
2022/10/01 10:26:31;;;;;;;7.35;5.20;;;;;;;9.74;66.66;99887.13;5012021;28;20281;-71
2022/10/01 10:29:01;;;;;;;6.35;4.72;;;;;;;9.70;67.49;99895.72;5011660;28;20046;-71
2022/10/01 10:31:54;;;;;;;15.00;5.95;;;;;;;9.64;67.43;99881.16;5011657;28;20049;-72
2022/10/01 10:34:39;;;;;;;9.75;5.57;;;;;;;9.34;69.25;99888.16;5011530;28;20042;-70
2022/10/01 10:37:13;;;;;;;10.23;6.00;;;;;;;9.35;69.87;99879.13;5011028;28;20096;-72
2022/10/01 10:39:43;;;;;;;9.85;6.05;;;;;;;9.31;70.15;99872.44;5010957;28;20282;-72
2022/10/01 10:42:14;;;;;;;8.52;6.57;;;;;;;9.31;70.46;99872.44;5011464;28;20076;-70
2022/10/01 10:44:44;;;;;;;12.68;6.95;;;;;;;9.23;71.16;99862.56;5010305;28;20058;-71
2022/10/01 10:47:13;;;;;;;12.60;6.70;;;;;;;9.13;71.35;99878.00;5011431;28;20046;-71
2022/10/01 10:49:46;;;;;;;11.93;6.35;;;;;;;9.02;71.86;99868.50;5011219;28;20630;-70
2022/10/01 10:52:34;;;;;;;12.57;8.02;;;;;;;9.33;72.13;99843.66;5011698;28;20058;-70
2022/10/01 10:55:19;;;;;;;9.90;7.20;;;;;;;9.15;72.26;99843.03;5010775;28;20053;-70
2022/10/01 10:57:45;;;;;;;12.93;7.50;;;;;;;9.43;71.09;99846.13;5011632;28;20046;-69
2022/10/01 11:00:18;;;;;;;13.27;8.05;;;;;;;9.17;71.96;99854.41;5011394;28;20064;-69
2022/10/01 11:02:58;;;;;;;15.05;8.00;;;;;;;9.00;73.04;99857.13;5000948;28;20053;-69
2022/10/01 11:05:28;;;;;;;12.18;8.40;;;;;;;9.34;72.67;99857.91;5010552;28;20054;-69
2022/10/01 11:07:59;;;;;;;13.57;9.15;;;;;;;9.35;72.81;99848.84;5010350;28;20052;-75
2022/10/01 11:10:39;;;;;;;13.60;9.15;;;;;;;9.37;72.76;99844.13;5011937;28;20060;-75
2022/10/01 11:13:31;;;;;;;13.52;9.43;;;;;;;9.45;72.65;99854.81;5012541;28;20144;-76
2022/10/01 11:16:19;;;;;;;14.45;8.38;;;;;;;9.22;73.05;99849.34;5012118;28;20046;-76
2022/10/01 11:19:17;;;;;;;13.65;7.20;;;;;;;9.21;72.49;99843.16;5012581;28;20109;-76
2022/10/01 11:22:02;;;;;;;9.70;6.93;;;;;;;9.30;72.24;99838.63;5014383;28;20042;-75
2022/10/01 11:24:47;;;;;;;9.23;6.60;;;;;;;9.37;71.65;99841.47;5014305;28;20068;-75
2022/10/01 11:27:17;;;;;;;10.43;6.80;;;;;;;9.45;71.85;99834.25;5015855;28;20037;-75
2022/10/01 11:29:53;;;;;;;12.02;7.20;;;;;;;9.45;72.20;99834.25;5018544;28;20049;-75
2022/10/01 11:32:48;;;;;;;14.85;6.82;;;;;;;9.48;71.76;99828.53;5019253;28;20101;-75
2022/10/01 11:35:31;;;;;;;8.18;6.28;;;;;;;9.40;71.85;99820.53;5020295;28;20041;-75
2022/10/01 11:38:18;;;;;;;9.05;5.95;;;;;;;9.70;71.42;99831.44;5019601;28;20041;-76
2022/10/01 11:40:49;;;;;;;8.50;6.40;;;;;;;9.57;71.33;99822.09;5022080;28;20053;-75
2022/10/01 11:43:21;;;;;;;9.80;6.32;;;;;;;9.65;71.56;99821.25;5024055;28;20053;-75
2022/10/01 11:45:52;;;;;;;9.32;6.15;;;;;;;9.72;71.03;99829.44;5024293;28;20052;-74
2022/10/01 11:48:32;;;;;;;9.55;6.28;;;;;;;9.45;71.03;99823.53;5024077;28;20049;-75
2022/10/01 11:51:07;;;;;;;9.50;5.78;;;;;;;9.40;71.14;99820.53;5026509;28;20057;-75
2022/10/01 11:53:44;;;;;;;8.65;5.43;;;;;;;9.50;70.87;99820.31;5025581;28;20068;-76
2022/10/01 11:59:35;;;;;;;6.03;4.72;;;;;;;9.62;70.47;99829.63;5026874;28;20054;-70
2022/10/01 12:02:22;;;;;;;8.07;5.32;;;;;;;9.83;70.32;99826.34;5024688;28;20046;-75
2022/10/01 12:04:57;;;;;;;6.70;4.95;;;;;;;9.69;70.59;99817.22;5016594;28;20069;-63
2022/10/01 12:08:08;;;;;;;6.13;5.10;;;;;;;9.78;70.53;99823.34;5010334;28;20394;-62
2022/10/01 12:10:42;;;;;;;6.55;4.63;;;;;;;9.70;70.30;99826.91;5009082;28;20034;-64
2022/10/01 12:13:14;;;;;;;6.32;4.50;;;;;;;9.76;69.80;99820.03;5011858;28;20050;-64
2022/10/01 12:15:52;;;;;;;9.57;4.00;;;;;;;9.52;70.60;99815.63;5011601;28;20452;-64
2022/10/01 12:18:31;;;;;;;6.03;4.43;;;;;;;9.95;69.56;99824.91;5011341;28;20124;-65
2022/10/01 12:21:01;;;;;;;6.70;4.28;;;;;;;9.93;69.63;99826.94;5011475;28;20042;-64
2022/10/01 12:23:53;;;;;;;5.82;4.20;;;;;;;9.97;70.25;99825.56;5012041;28;20493;-63
2022/10/01 12:26:36;;;;;;;;;;;;;;;10.01;70.31;99823.34;4965760;28;20046;-71
2022/10/01 12:29:29;;;;;;;8.68;4.93;;;;;;;9.66;71.67;99814.88;5011488;28;20430;-64
2022/10/01 12:31:58;;;;;;;6.88;4.53;;;;;;;9.68;71.95;99820.91;5011402;28;20057;-64
2022/10/01 12:34:44;;;;;;;6.47;5.30;;;;;;;9.46;73.02;99811.81;5011693;28;20068;-68
2022/10/01 12:37:18;;;;;;;7.57;4.90;;;;;;;9.66;73.06;99819.41;5011165;28;20046;-68
2022/10/01 12:40:16;;;;;;;6.75;5.53;;;;;;;9.61;72.75;99816.41;5001009;28;20046;-69
2022/10/01 12:43:23;;;;;;;5.95;4.70;;;;;;;9.44;73.60;99810.31;5010500;28;20100;-69
2022/10/01 12:46:04;;;;;;;9.23;5.20;;;;;;;9.53;72.90;99818.13;5010221;28;20044;-68
2022/10/01 12:48:51;;;;;;;7.13;5.30;;;;;;;9.78;72.64;99809.94;5001376;28;20057;-68
2022/10/01 12:51:29;;;;;;;7.30;5.13;;;;;;;9.87;72.30;99816.94;5002863;28;20046;-68
2022/10/01 12:54:29;;;;;;;9.43;5.82;;;;;;;9.88;72.35;99813.22;5010073;28;20493;-67
2022/10/01 12:57:10;;;;;;;11.30;6.32;;;;;;;9.76;72.83;99809.31;4947216;28;20042;-68
2022/10/01 12:59:47;;;;;;;8.10;5.70;;;;;;;9.57;73.24;99806.03;5009195;28;20050;-68
2022/10/01 13:02:42;;;;;;;6.10;5.03;;;;;;;9.61;73.02;99808.38;5013997;28;20061;-68
2022/10/01 13:05:18;;;;;;;8.27;5.63;;;;;;;9.82;72.69;99808.59;5013779;28;20054;-69
2022/10/01 13:08:21;;;;;;;8.00;5.80;;;;;;;9.86;72.70;99799.19;5014010;28;20069;-70
2022/10/01 13:11:05;;;;;;;;;;;;;;;9.71;72.59;99817.03;5008387;28;20049;-69
2022/10/01 13:13:33;;;;;;;10.02;5.55;;;;;;;9.60;73.29;99804.03;4994019;28;19922;-67
2022/10/01 13:16:21;;;;;;;8.25;5.50;;;;;;;9.76;73.01;99806.63;4993711;28;20046;-67
2022/10/01 13:18:51;;;;;;;10.07;6.18;;;;;;;9.84;72.47;99806.56;4993912;28;20042;-68
2022/10/01 13:21:24;;;;;;;11.40;5.72;;;;;;;9.99;72.15;99810.16;4993766;28;20062;-68
2022/10/01 13:24:02;;;;;;;11.45;5.45;;;;;;;9.87;72.68;99811.56;4993796;28;20050;-68
2022/10/01 13:27:01;;;;;;;9.02;5.35;;;;;;;9.93;71.92;99816.22;4992921;28;20050;-69
2022/10/01 13:29:46;;;;;;;8.02;5.47;;;;;;;9.97;72.00;99808.66;4993030;28;20054;-67
2022/10/01 13:32:26;;;;;;;8.15;5.32;;;;;;;9.85;72.53;99810.91;4986723;28;20049;-67
2022/10/01 13:34:53;;;;;;;7.03;4.45;;;;;;;9.73;72.80;99805.13;4993565;28;20046;-68
2022/10/01 13:37:29;;;;;;;6.05;4.35;;;;;;;10.09;72.11;99807.22;4993394;28;20057;-68
2022/10/01 13:39:57;;;;;;;5.72;4.53;;;;;;;10.38;71.01;99806.47;4993888;28;20053;-69
2022/10/01 13:42:41;;;;;;;7.32;3.95;;;;;;;10.34;70.86;99805.19;4993663;28;20050;-68
2022/10/01 13:45:19;;;;;;;5.60;4.43;;;;;;;10.46;70.77;99806.41;4992869;28;20417;-68
2022/10/01 13:47:46;;;;;;;6.38;3.97;;;;;;;10.20;72.00;99805.94;4993575;28;20046;-67
2022/10/01 13:50:22;;;;;;;7.20;4.38;;;;;;;10.31;71.57;99810.06;4993326;28;20501;-69
2022/10/01 13:52:50;;;;;;;9.35;4.00;;;;;;;10.59;70.62;99813.88;4991840;28;20519;-69
2022/10/01 13:55:29;;;;;;;4.00;3.35;;;;;;;10.51;71.03;99816.59;4994117;28;20046;-68
2022/10/01 13:58:18;;;;;;;5.90;3.65;;;;;;;10.48;70.62;99809.75;4993248;28;20046;-67
2022/10/01 14:00:53;;;;;;;5.05;3.50;;;;;;;10.42;70.96;99815.81;4993464;28;20050;-67
2022/10/01 14:04:05;;;;;;;5.18;3.30;;;;;;;10.78;70.40;99820.53;4992615;28;20051;-68
2022/10/01 14:06:34;;;;;;;5.15;3.20;;;;;;;10.74;70.12;99820.06;4967994;28;20426;-67
2022/10/01 14:09:20;;;;;;;4.85;3.33;;;;;;;10.61;70.15;99819.84;4992384;28;20038;-67
2022/10/01 14:17:33;;;;;;;7.88;2.70;;;;;;;10.75;70.69;99812.84;5012907;28;20048;-68
2022/10/01 14:20:01;;;;;;;5.45;2.97;;;;;;;10.39;71.57;99801.94;5012332;28;20042;-67
2022/10/01 14:22:49;;;;;;;3.78;2.63;;;;;;;10.53;71.41;99800.34;5012644;28;20073;-67
2022/10/01 14:25:15;;;;;;;4.80;2.83;;;;;;;10.62;71.13;99804.63;5010188;28;20049;-68
2022/10/01 14:28:12;;;;;;;3.53;2.65;;;;;;;10.82;70.50;99800.34;5012371;28;20050;-69
2022/10/01 14:31:06;;;;;;;7.07;3.10;;;;;;;10.53;71.13;99794.97;5011354;28;20042;-69
2022/10/01 14:33:59;;;;;;;7.07;2.78;;;;;;;10.79;70.75;99799.91;5004407;28;20049;-68
2022/10/01 14:36:48;;;;;;;4.32;2.75;;;;;;;10.76;70.87;99798.44;5006582;28;20052;-67
2022/10/01 14:39:28;;;;;;;4.10;2.25;;;;;;;10.89;70.80;99795.91;5013042;28;20526;-69
2022/10/01 14:41:57;;;;;;;5.88;2.95;;;;;;;10.92;70.26;99795.56;5012135;28;20057;-69
2022/10/01 14:44:30;;;;;;;5.50;2.60;;;;;;;10.90;70.24;99794.94;5011622;28;20046;-69
2022/10/01 14:46:58;;;;;;;4.00;2.28;;;;;;;10.89;70.66;99790.56;5006850;28;20042;-69
2022/10/01 14:49:26;;;;;;;4.40;2.65;;;;;;;11.10;70.33;99788.97;5013968;28;20042;-68
2022/10/01 14:52:00;;;;;;;3.47;2.35;;;;;;;10.74;70.88;99795.09;5013220;28;20046;-68
2022/10/01 14:54:29;;;;;;;5.97;2.55;;;;;;;10.86;70.86;99792.78;5013076;28;20042;-68
2022/10/01 14:56:56;;;;;;;5.32;2.55;;;;;;;10.89;70.35;99789.72;5012705;28;20068;-71
2022/10/01 14:59:34;;;;;;;2.97;2.05;;;;;;;10.79;70.97;99794.53;5012925;28;20053;-68
2022/10/01 15:02:16;;;;;;;5.05;2.30;;;;;;;11.02;70.32;99799.81;5011790;28;20056;-66
2022/10/01 15:05:13;;;;;;;2.85;2.20;;;;;;;10.94;70.46;99798.91;5012321;28;20050;-67
2022/10/01 15:07:46;;;;;;;4.32;2.72;;;;;;;10.71;71.02;99795.47;5012713;28;20417;-68